createdAt,value
2018-02-09T00:01:41.798Z,70.63
2018-02-09T00:04:10.982Z,78.82
2018-02-09T00:06:39.282Z,70.72
2018-02-09T00:09:11.066Z,71.38
2018-02-09T00:11:39.363Z,77.57
2018-02-09T00:14:21.530Z,75.35
2018-02-09T00:16:49.822Z,64.83
2018-02-09T00:19:29.011Z,70.38
2018-02-09T00:21:57.307Z,71.50
2018-02-09T00:24:28.333Z,68.98
2018-02-09T00:26:56.610Z,74.35
2018-02-09T00:29:24.874Z,71.18
2018-02-09T00:31:52.401Z,70.90
2018-02-09T00:34:22.606Z,73.98
2018-02-09T00:36:50.133Z,72.83
2018-02-09T00:39:19.425Z,70.50
2018-02-09T00:41:47.730Z,83.33
2018-02-09T00:44:16.922Z,76.83
2018-02-09T00:46:45.194Z,75.45
2018-02-09T00:49:13.486Z,76.80
2018-02-09T00:51:46.339Z,71.68
2018-02-09T00:54:14.638Z,73.65
2018-02-09T00:56:44.886Z,71.18
2018-02-09T00:59:13.186Z,67.60
2018-02-09T01:01:44.565Z,78.78
2018-02-09T01:04:12.873Z,65.27
2018-02-09T01:06:45.569Z,77.02
2018-02-09T01:09:13.862Z,72.73
2018-02-09T01:11:55.047Z,75.05
2018-02-09T01:14:23.338Z,80.75
2018-02-09T01:16:54.486Z,69.87
2018-02-09T01:19:22.782Z,72.78
2018-02-09T01:21:51.063Z,69.00
2018-02-09T01:24:19.358Z,72.75
2018-02-09T01:26:55.545Z,80.95
2018-02-09T01:29:23.814Z,78.05
2018-02-09T01:31:55.767Z,80.40
2018-02-09T01:34:24.026Z,88.05
2018-02-09T01:37:02.598Z,78.47
2018-02-09T01:39:30.854Z,87.87
2018-02-09T01:42:00.130Z,80.67
2018-02-09T01:44:29.285Z,84.68
2018-02-09T01:47:07.765Z,78.10
2018-02-09T01:49:36.049Z,78.38
2018-02-09T01:52:10.810Z,82.33
2018-02-09T01:54:39.097Z,84.62
2018-02-09T01:57:07.386Z,73.97
2018-02-09T01:59:35.653Z,78.90
2018-02-09T02:02:08.395Z,83.03
2018-02-09T02:04:36.658Z,88.75
2018-02-09T02:07:26.422Z,74.83
2018-02-09T02:09:54.689Z,92.47
2018-02-09T02:12:24.964Z,90.90
2018-02-09T02:14:53.259Z,78.52
2018-02-09T02:17:28.268Z,74.82
2018-02-09T02:19:56.558Z,69.12
2018-02-09T02:22:25.823Z,74.25
2018-02-09T02:24:54.113Z,75.88
2018-02-09T02:27:32.526Z,69.68
2018-02-09T02:30:00.830Z,75.20
2018-02-09T02:32:31.013Z,87.90
2018-02-09T02:35:00.517Z,71.87
2018-02-09T02:37:29.799Z,72.03
2018-02-09T02:39:58.646Z,69.63
2018-02-09T02:42:26.960Z,70.93
2018-02-09T02:44:54.454Z,73.53
2018-02-09T02:47:22.717Z,81.83
2018-02-09T02:49:51.006Z,79.80
2018-02-09T02:52:27.174Z,64.85
2018-02-09T02:54:55.461Z,80.12
2018-02-09T02:57:23.718Z,79.95
2018-02-09T02:59:52.001Z,81.97
2018-02-09T03:02:28.968Z,75.97
2018-02-09T03:04:57.229Z,73.77
2018-02-09T03:07:25.490Z,68.22
2018-02-09T03:09:53.785Z,81.85
2018-02-09T03:12:22.056Z,71.40
2018-02-09T03:14:50.327Z,81.17
2018-02-09T03:17:22.349Z,70.63
2018-02-09T03:19:50.628Z,68.52
2018-02-09T03:22:22.451Z,74.85
2018-02-09T03:24:50.711Z,72.32
2018-02-09T03:27:19.001Z,78.77
2018-02-09T03:29:47.261Z,71.43
2018-02-09T03:32:18.625Z,77.48
2018-02-09T03:34:46.918Z,78.73
2018-02-09T03:37:15.178Z,75.57
2018-02-09T03:39:43.480Z,81.67
2018-02-09T03:42:11.741Z,73.32
2018-02-09T03:44:40.035Z,83.02
2018-02-09T03:47:08.307Z,65.18
2018-02-09T03:49:36.594Z,65.23
2018-02-09T03:52:06.879Z,71.83
2018-02-09T03:54:35.173Z,88.10
2018-02-09T03:57:03.438Z,78.15
2018-02-09T03:59:31.725Z,77.68
2018-02-09T04:01:59.996Z,80.52
2018-02-09T04:04:29.238Z,71.65
2018-02-09T04:07:03.521Z,82.58
2018-02-09T04:09:31.813Z,68.70
2018-02-09T04:12:00.125Z,69.97
2018-02-09T04:14:29.415Z,69.35
2018-02-09T04:16:57.678Z,71.53
2018-02-09T04:19:25.984Z,79.97
2018-02-09T04:22:00.052Z,80.65
2018-02-09T04:24:29.213Z,75.25
2018-02-09T04:26:58.191Z,76.68
2018-02-09T04:29:26.481Z,70.87
2018-02-09T04:31:54.745Z,77.07
2018-02-09T04:34:23.038Z,75.33
2018-02-09T04:36:58.854Z,75.30
2018-02-09T04:39:27.165Z,65.60
2018-02-09T04:41:55.424Z,74.82
2018-02-09T04:44:23.686Z,74.95
2018-02-09T04:46:51.979Z,79.30
2018-02-09T04:49:20.241Z,69.95
2018-02-09T04:51:48.513Z,72.33
2018-02-09T04:54:16.787Z,70.67
2018-02-09T04:56:45.077Z,75.70
2018-02-09T04:59:23.364Z,80.55
2018-02-09T05:01:51.653Z,71.43
2018-02-09T05:04:21.838Z,84.22
2018-02-09T05:06:50.137Z,76.73
2018-02-09T05:09:25.674Z,73.75
2018-02-09T05:11:53.958Z,66.92
2018-02-09T05:14:23.149Z,79.17
2018-02-09T05:16:51.436Z,76.03
2018-02-09T05:19:25.995Z,81.27
2018-02-09T05:21:54.267Z,78.47
2018-02-09T05:24:22.557Z,74.80
2018-02-09T05:27:07.305Z,80.20
2018-02-09T05:29:35.597Z,85.23
2018-02-09T05:32:09.742Z,67.93
2018-02-09T05:34:38.010Z,74.58
2018-02-09T05:37:14.716Z,76.48
2018-02-09T05:39:42.988Z,80.57
2018-02-09T05:42:11.261Z,78.30
2018-02-09T05:44:38.776Z,79.93
2018-02-09T05:47:08.054Z,71.55
2018-02-09T05:49:36.368Z,77.95
2018-02-09T05:52:18.509Z,69.33
2018-02-09T05:54:46.018Z,66.78
2018-02-09T05:57:15.189Z,59.87
2018-02-09T05:59:43.477Z,71.13
2018-02-09T06:02:12.709Z,79.65
2018-02-09T06:04:41.010Z,67.67
2018-02-09T06:07:12.708Z,68.00
2018-02-09T06:09:40.997Z,70.88
2018-02-09T06:12:13.722Z,70.58
2018-02-09T06:14:42.017Z,69.82
2018-02-09T06:17:13.801Z,68.83
2018-02-09T06:19:42.115Z,71.18
2018-02-09T06:22:14.022Z,68.60
2018-02-09T06:24:41.601Z,70.38
2018-02-09T06:27:13.065Z,63.77
2018-02-09T06:29:41.362Z,69.85
2018-02-09T06:32:22.439Z,64.43
2018-02-09T06:34:50.729Z,67.17
2018-02-09T06:37:19.032Z,72.53
2018-02-09T06:39:47.285Z,70.27
2018-02-09T06:42:16.501Z,66.03
2018-02-09T06:44:44.806Z,65.47
2018-02-09T06:47:15.058Z,60.60
2018-02-09T06:49:43.362Z,71.10
2018-02-09T06:52:12.600Z,67.97
2018-02-09T06:54:40.857Z,71.55
2018-02-09T06:57:12.618Z,67.33
2018-02-09T06:59:40.881Z,67.15
2018-02-09T07:02:12.907Z,57.22
2018-02-09T07:04:41.171Z,62.92
2018-02-09T07:07:10.429Z,69.33
2018-02-09T07:09:38.695Z,61.75
2018-02-09T07:12:07.927Z,65.10
2018-02-09T07:14:36.249Z,74.12
2018-02-09T07:17:09.853Z,74.97
2018-02-09T07:19:38.140Z,65.47
2018-02-09T07:22:10.979Z,64.40
2018-02-09T07:24:39.266Z,65.55
2018-02-09T07:27:07.562Z,71.45
2018-02-09T07:29:35.840Z,59.70
2018-02-09T07:32:06.063Z,69.20
2018-02-09T07:34:34.322Z,67.80
2018-02-09T07:37:14.814Z,67.50
2018-02-09T07:39:43.078Z,75.65
2018-02-09T07:42:11.378Z,59.83
2018-02-09T07:44:39.634Z,64.50
2018-02-09T07:47:15.121Z,68.00
2018-02-09T07:49:43.414Z,60.58
2018-02-09T07:52:12.645Z,61.40
2018-02-09T07:54:40.935Z,63.98
2018-02-09T07:57:10.242Z,74.38
2018-02-09T07:59:38.509Z,72.65
2018-02-09T08:02:11.953Z,83.35
2018-02-09T08:04:40.239Z,76.83
2018-02-09T08:07:12.162Z,61.82
2018-02-09T08:09:40.455Z,76.92
2018-02-09T08:12:08.770Z,65.37
2018-02-09T08:14:37.026Z,69.03
2018-02-09T08:17:06.300Z,59.58
2018-02-09T08:19:34.595Z,73.00
2018-02-09T08:22:12.881Z,74.63
2018-02-09T08:24:41.169Z,67.65
2018-02-09T08:27:09.421Z,71.80
2018-02-09T08:29:37.723Z,68.60
2018-02-09T08:32:12.122Z,62.62
2018-02-09T08:34:40.412Z,70.53
2018-02-09T08:37:08.692Z,64.97
2018-02-09T08:39:36.957Z,69.35
2018-02-09T08:42:05.213Z,71.12
2018-02-09T08:44:33.523Z,73.33
2018-02-09T08:47:01.782Z,67.82
2018-02-09T08:49:30.046Z,83.17
2018-02-09T08:51:59.171Z,72.48
2018-02-09T08:54:28.235Z,73.13
2018-02-09T08:56:56.513Z,66.95
2018-02-09T08:59:24.816Z,58.70
2018-02-09T09:01:53.077Z,65.32
2018-02-09T09:04:21.329Z,71.93
2018-02-09T09:06:49.600Z,80.77
2018-02-09T09:09:17.893Z,66.52
2018-02-09T09:11:46.194Z,83.40
2018-02-09T09:14:14.449Z,70.73
2018-02-09T09:16:42.706Z,85.30
2018-02-09T09:19:11.012Z,59.27
2018-02-09T09:21:39.313Z,70.98
2018-02-09T09:24:07.575Z,69.47
2018-02-09T09:26:35.837Z,78.83
2018-02-09T09:29:04.135Z,77.52
2018-02-09T09:31:32.389Z,72.03
2018-02-09T09:33:59.920Z,68.20
2018-02-09T09:36:29.054Z,68.23
2018-02-09T09:38:58.139Z,85.63
2018-02-09T09:41:26.408Z,73.67
2018-02-09T09:43:54.708Z,84.92
2018-02-09T09:46:22.968Z,74.87
2018-02-09T09:48:51.257Z,67.92
2018-02-09T09:51:19.528Z,78.63
2018-02-09T09:53:47.822Z,72.13
2018-02-09T09:56:16.117Z,65.53
2018-02-09T09:58:44.373Z,68.93
2018-02-09T10:01:18.436Z,77.95
2018-02-09T10:03:46.694Z,78.87
2018-02-09T10:06:14.981Z,88.27
2018-02-09T10:08:43.288Z,75.07
2018-02-09T10:11:11.550Z,83.93
2018-02-09T10:13:39.857Z,82.98
2018-02-09T10:16:07.353Z,64.80
2018-02-09T10:18:35.618Z,78.33
2018-02-09T10:21:03.906Z,70.23
2018-02-09T10:23:34.166Z,69.05
2018-02-09T10:26:02.457Z,69.67
2018-02-09T10:28:30.723Z,67.57
2018-02-09T10:30:59.228Z,70.90
2018-02-09T10:33:28.202Z,80.26
2018-02-09T10:36:07.275Z,68.65
2018-02-09T10:38:35.565Z,60.15
2018-02-09T10:41:03.835Z,66.07
2018-02-09T10:43:32.129Z,62.35
2018-02-09T10:46:00.450Z,67.55
2018-02-09T10:48:29.693Z,75.00
2018-02-09T10:50:59.169Z,79.60
2018-02-09T10:53:34.150Z,66.66
2018-02-09T10:56:02.439Z,61.20
2018-02-09T10:58:30.690Z,67.24
2018-02-09T11:00:59.162Z,66.47
2018-02-09T11:03:30.569Z,79.24
2018-02-09T11:06:00.137Z,66.90
2018-02-09T11:08:29.247Z,83.18
2018-02-09T11:10:58.137Z,70.43
2018-02-09T11:13:32.167Z,75.80
2018-02-09T11:16:00.452Z,68.50
2018-02-09T11:18:29.245Z,68.90
2018-02-09T11:20:58.432Z,71.08
2018-02-09T11:23:26.780Z,64.36
2018-02-09T11:25:55.036Z,79.74
2018-02-09T11:28:23.319Z,86.22
2018-02-09T11:30:51.621Z,94.28
2018-02-09T11:33:25.181Z,80.34
2018-02-09T11:35:53.512Z,79.40
2018-02-09T11:38:22.718Z,70.44
2018-02-09T11:40:50.970Z,70.32
2018-02-09T11:43:22.778Z,74.33
2018-02-09T11:45:51.089Z,82.78
2018-02-09T11:48:24.934Z,78.18
2018-02-09T11:50:53.225Z,80.98
2018-02-09T11:53:25.333Z,85.74
2018-02-09T11:55:53.625Z,87.82
2018-02-09T11:58:22.849Z,76.36
2018-02-09T12:00:50.346Z,83.40
2018-02-09T12:03:25.618Z,83.20
2018-02-09T12:05:53.901Z,70.30
2018-02-09T12:08:24.187Z,76.80
2018-02-09T12:10:52.435Z,78.72
2018-02-09T12:13:28.992Z,80.66
2018-02-09T12:15:57.269Z,75.30
2018-02-09T12:18:25.567Z,74.36
2018-02-09T12:20:53.825Z,70.98
2018-02-09T12:23:22.121Z,75.48
2018-02-09T12:25:50.373Z,78.48
2018-02-09T12:28:18.626Z,70.90
2018-02-09T12:30:46.920Z,79.20
2018-02-09T12:33:14.433Z,88.70
2018-02-09T12:35:42.705Z,94.78
2018-02-09T12:38:10.994Z,73.48
2018-02-09T12:40:39.242Z,72.56
2018-02-09T12:43:07.529Z,76.56
2018-02-09T12:45:35.039Z,77.18
2018-02-09T12:48:03.318Z,83.54
2018-02-09T12:50:31.601Z,77.66
2018-02-09T12:52:59.908Z,69.20
2018-02-09T12:55:29.445Z,73.98
2018-02-09T12:57:57.703Z,70.12
2018-02-09T13:00:26.016Z,72.90
2018-02-09T13:02:54.273Z,67.40
2018-02-09T13:05:22.548Z,77.68
2018-02-09T13:07:50.830Z,64.00
2018-02-09T13:10:19.107Z,65.30
2018-02-09T13:12:59.251Z,61.98
2018-02-09T13:15:27.554Z,66.24
2018-02-09T13:17:55.849Z,59.54
2018-02-09T13:20:24.105Z,66.84
2018-02-09T13:23:04.402Z,59.30
2018-02-09T13:25:32.662Z,63.72
2018-02-09T13:28:00.911Z,58.48
2018-02-09T13:30:30.434Z,70.56
2018-02-09T13:33:10.467Z,62.94
2018-02-09T13:35:38.750Z,71.08
2018-02-09T13:38:07.034Z,70.92
2018-02-09T13:40:35.298Z,60.50
2018-02-09T13:43:02.818Z,54.22
2018-02-09T13:45:31.109Z,59.38
2018-02-09T13:48:00.351Z,60.10
2018-02-09T13:50:28.636Z,64.80
2018-02-09T13:52:56.913Z,59.84
2018-02-09T13:55:24.416Z,67.54
2018-02-09T13:57:52.703Z,58.88
2018-02-09T14:00:20.951Z,54.56
2018-02-09T14:02:49.242Z,63.28
2018-02-09T14:05:17.495Z,66.14
2018-02-09T14:07:45.784Z,60.80
2018-02-09T14:10:14.074Z,67.40
2018-02-09T14:12:42.365Z,69.48
2018-02-09T14:15:10.623Z,68.58
2018-02-09T14:17:38.956Z,67.36
2018-02-09T14:20:07.209Z,71.68
2018-02-09T14:22:35.470Z,54.68
2018-02-09T14:25:03.752Z,71.58
2018-02-09T14:27:32.021Z,65.48
2018-02-09T14:30:00.314Z,58.84
2018-02-09T14:32:28.565Z,64.36
2018-02-09T14:34:56.854Z,61.26
2018-02-09T14:37:25.124Z,60.76
2018-02-09T14:39:53.401Z,72.90
2018-02-09T14:42:21.665Z,70.64
2018-02-09T14:44:49.954Z,62.30
2018-02-09T14:47:18.222Z,65.26
2018-02-09T14:49:46.466Z,63.62
2018-02-09T14:52:14.763Z,68.60
2018-02-09T14:54:42.270Z,51.72
2018-02-09T14:57:10.521Z,59.14
2018-02-09T14:59:38.821Z,61.62
2018-02-09T15:02:07.091Z,64.74
2018-02-09T15:04:35.358Z,72.52
2018-02-09T15:07:03.645Z,58.48
2018-02-09T15:09:31.936Z,60.48
2018-02-09T15:12:00.206Z,64.26
2018-02-09T15:14:28.544Z,70.06
2018-02-09T15:16:56.818Z,66.82
2018-02-09T15:19:25.075Z,60.48
2018-02-09T15:21:53.326Z,61.10
2018-02-09T15:24:20.870Z,72.14
2018-02-09T15:26:49.160Z,66.26
2018-02-09T15:29:17.425Z,56.36
2018-02-09T15:31:45.729Z,64.40
2018-02-09T15:34:20.208Z,56.40
2018-02-09T15:36:48.493Z,62.80
2018-02-09T15:39:16.785Z,57.20
2018-02-09T15:41:45.057Z,61.02
2018-02-09T15:44:13.311Z,55.40
2018-02-09T15:46:41.608Z,62.46
2018-02-09T15:49:09.879Z,58.34
2018-02-09T15:51:38.140Z,66.94
2018-02-09T15:54:06.437Z,58.16
2018-02-09T15:56:33.926Z,50.02
2018-02-09T15:59:02.193Z,56.98
2018-02-09T16:01:30.483Z,44.08
2018-02-09T16:04:00.114Z,49.52
2018-02-09T16:06:29.314Z,49.86
2018-02-09T16:08:58.384Z,39.92
2018-02-09T16:11:26.701Z,38.18
2018-02-09T16:13:54.972Z,42.20
2018-02-09T16:16:29.578Z,40.38
2018-02-09T16:18:58.838Z,41.46
2018-02-09T16:21:27.147Z,43.84
2018-02-09T16:23:54.648Z,40.94
2018-02-09T16:26:22.180Z,43.28
2018-02-09T16:28:50.475Z,36.76
2018-02-09T16:31:18.738Z,42.32
2018-02-09T16:33:46.246Z,38.74
2018-02-09T16:36:15.513Z,34.60
2018-02-09T16:38:43.783Z,37.14
2018-02-09T16:41:13.065Z,36.34
2018-02-09T16:43:41.355Z,32.94
2018-02-09T16:46:10.591Z,36.18
2018-02-09T16:48:38.868Z,33.24
2018-02-09T16:51:07.173Z,39.44
2018-02-09T16:53:35.426Z,32.08
2018-02-09T16:56:07.074Z,28.14
2018-02-09T16:58:35.369Z,32.38
2018-02-09T17:01:03.631Z,32.18
2018-02-09T17:03:35.818Z,30.82
2018-02-09T17:06:04.119Z,30.16
2018-02-09T17:08:32.375Z,33.42
2018-02-09T17:11:00.626Z,29.72
2018-02-09T17:13:29.138Z,29.27
2018-02-09T17:15:58.144Z,31.76
2018-02-09T17:18:26.426Z,27.08
2018-02-09T17:20:54.698Z,34.80
2018-02-09T17:23:22.974Z,28.12
2018-02-09T17:25:51.258Z,33.86
2018-02-09T17:28:19.558Z,33.24
2018-02-09T17:30:47.854Z,28.10
2018-02-09T17:33:16.130Z,27.58
2018-02-09T17:35:44.421Z,31.22
2018-02-09T17:38:13.659Z,25.58
2018-02-09T17:40:41.928Z,33.94
2018-02-09T17:43:12.151Z,26.36
2018-02-09T17:45:40.456Z,35.00
2018-02-09T17:48:08.726Z,29.44
2018-02-09T17:50:37.025Z,31.96
2018-02-09T17:53:05.290Z,35.36
2018-02-09T17:55:33.537Z,28.44
2018-02-09T17:58:01.825Z,34.42
2018-02-09T18:00:34.140Z,29.92
2018-02-09T18:03:02.423Z,30.60
2018-02-09T18:05:31.622Z,29.00
2018-02-09T18:07:59.913Z,28.16
2018-02-09T18:10:29.108Z,29.42
2018-02-09T18:12:58.087Z,30.96
2018-02-09T18:15:26.378Z,29.10
2018-02-09T18:17:54.638Z,30.30
2018-02-09T18:20:24.100Z,23.64
2018-02-09T18:22:52.394Z,32.66
2018-02-09T18:25:21.655Z,28.16
2018-02-09T18:27:49.930Z,33.44
2018-02-09T18:30:18.224Z,26.14
2018-02-09T18:32:46.515Z,32.18
2018-02-09T18:35:14.757Z,35.00
2018-02-09T18:37:43.063Z,26.95
2018-02-09T18:40:12.272Z,30.58
2018-02-09T18:42:40.567Z,27.90
2018-02-09T18:45:08.100Z,36.60
2018-02-09T18:47:36.412Z,34.20
2018-02-09T18:50:07.920Z,30.62
2018-02-09T18:52:36.220Z,26.64
2018-02-09T18:55:05.492Z,31.34
2018-02-09T18:57:33.791Z,34.18
2018-02-09T19:00:02.993Z,30.16
2018-02-09T19:02:31.267Z,30.37
2018-02-09T19:05:05.550Z,27.48
2018-02-09T19:07:33.809Z,24.86
2018-02-09T19:10:12.534Z,29.36
2018-02-09T19:12:40.790Z,32.52
2018-02-09T19:15:14.777Z,30.80
2018-02-09T19:17:43.068Z,33.20
2018-02-09T19:20:11.322Z,30.20
2018-02-09T19:22:39.622Z,34.96
2018-02-09T19:25:08.919Z,25.50
2018-02-09T19:27:37.214Z,24.94
2018-02-09T19:30:05.568Z,30.02
2018-02-09T19:32:33.826Z,30.58
2018-02-09T19:35:01.350Z,24.38
2018-02-09T19:37:29.633Z,31.82
2018-02-09T19:39:58.994Z,27.54
2018-02-09T19:42:27.285Z,29.42
2018-02-09T19:44:55.578Z,34.94
2018-02-09T19:47:23.115Z,35.96
2018-02-09T19:49:55.984Z,32.58
2018-02-09T19:52:23.506Z,25.18
2018-02-09T19:54:51.777Z,24.96
2018-02-09T19:57:19.302Z,31.74
2018-02-09T19:59:47.555Z,23.42
2018-02-09T20:02:15.858Z,30.04
2018-02-09T20:04:51.962Z,28.50
2018-02-09T20:07:20.259Z,25.52
2018-02-09T20:09:48.546Z,29.84
2018-02-09T20:12:16.820Z,22.54
2018-02-09T20:14:46.083Z,31.58
2018-02-09T20:17:14.333Z,33.44
2018-02-09T20:19:48.918Z,30.20
2018-02-09T20:22:17.205Z,26.48
2018-02-09T20:24:45.460Z,27.12
2018-02-09T20:27:13.736Z,27.16
2018-02-09T20:29:42.018Z,31.36
2018-02-09T20:32:10.288Z,28.04
2018-02-09T20:34:39.567Z,28.40
2018-02-09T20:37:07.818Z,25.56
2018-02-09T20:39:40.553Z,26.46
2018-02-09T20:42:08.806Z,28.72
2018-02-09T20:44:37.090Z,31.78
2018-02-09T20:47:05.342Z,24.94
2018-02-09T20:49:33.636Z,27.78
2018-02-09T20:52:01.120Z,31.16
2018-02-09T20:54:30.315Z,29.70
2018-02-09T20:56:58.913Z,26.20
2018-02-09T20:59:27.235Z,33.50
2018-02-09T21:01:55.538Z,28.10
2018-02-09T21:04:23.831Z,30.70
2018-02-09T21:06:51.332Z,27.64
2018-02-09T21:09:19.629Z,27.96
2018-02-09T21:11:47.937Z,21.84
2018-02-09T21:14:21.709Z,27.52
2018-02-09T21:16:49.967Z,30.60
2018-02-09T21:19:18.249Z,26.74
2018-02-09T21:21:46.505Z,24.68
2018-02-09T21:24:18.912Z,26.24
2018-02-09T21:26:47.167Z,31.00
2018-02-09T21:29:16.335Z,35.30
2018-02-09T21:31:44.631Z,23.72
2018-02-09T21:34:13.883Z,30.82
2018-02-09T21:36:42.165Z,25.86
2018-02-09T21:39:11.401Z,22.80
2018-02-09T21:41:39.682Z,26.64
2018-02-09T21:44:07.952Z,28.74
2018-02-09T21:46:39.976Z,28.54
2018-02-09T21:49:08.230Z,30.10
2018-02-09T21:51:36.501Z,29.14
2018-02-09T21:54:04.813Z,25.04
2018-02-09T21:56:36.291Z,32.18
2018-02-09T21:59:04.583Z,34.58
2018-02-09T22:01:34.880Z,25.44
2018-02-09T22:04:03.177Z,29.58
2018-02-09T22:06:32.375Z,25.40
2018-02-09T22:09:00.626Z,22.62
2018-02-09T22:11:29.866Z,25.72
2018-02-09T22:13:59.319Z,24.26
2018-02-09T22:16:30.698Z,25.94
2018-02-09T22:18:59.683Z,26.06
2018-02-09T22:21:30.475Z,24.28
2018-02-09T22:23:59.746Z,26.94
2018-02-09T22:26:28.780Z,25.96
2018-02-09T22:28:57.035Z,28.68
2018-02-09T22:31:25.328Z,24.42
2018-02-09T22:33:53.578Z,29.90
2018-02-09T22:36:25.893Z,31.48
2018-02-09T22:38:54.142Z,32.08
2018-02-09T22:41:22.422Z,31.20
2018-02-09T22:43:50.692Z,31.74
2018-02-09T22:46:38.273Z,21.10
2018-02-09T22:49:06.530Z,25.66
2018-02-09T22:51:36.824Z,29.36
2018-02-09T22:54:05.084Z,29.18
2018-02-09T22:56:33.395Z,29.18
2018-02-09T22:59:01.645Z,28.34
2018-02-09T23:01:38.285Z,31.68
2018-02-09T23:04:06.555Z,34.18
2018-02-09T23:06:34.839Z,26.90
2018-02-09T23:09:03.094Z,32.14
2018-02-09T23:11:38.257Z,30.22
2018-02-09T23:14:05.755Z,31.50
2018-02-09T23:16:42.254Z,30.72
2018-02-09T23:19:10.517Z,36.26
2018-02-09T23:21:40.712Z,25.74
2018-02-09T23:24:08.238Z,29.74
2018-02-09T23:26:36.557Z,25.80
2018-02-09T23:29:08.494Z,28.08
2018-02-09T23:31:36.762Z,27.83
2018-02-09T23:34:12.126Z,28.92
2018-02-09T23:36:40.431Z,26.60
2018-02-09T23:39:09.693Z,29.74
2018-02-09T23:41:37.177Z,26.26
2018-02-09T23:44:08.958Z,29.96
2018-02-09T23:46:37.205Z,28.04
2018-02-09T23:49:07.389Z,27.18
2018-02-09T23:51:35.689Z,35.22
2018-02-09T23:54:07.163Z,29.40
2018-02-09T23:56:35.442Z,28.02
2018-02-09T23:59:05.701Z,28.98
